Terminal Aerodrome Forecast
Issued by NWS Greer, SC

Home | Current Version | Previous Version | Text Only | Print | Product List | Glossary On
Versions: 1 2 3 4 5 6 7 8 9 10 11 12 13 14 15 16 17
000
FTUS42 KGSP 190500
TAFGSP
TAF
KGSP 190535Z 1906/2006 03012KT P6SM -RA SCT025 OVC080
     FM190800 03013G22KT 6SM RA BR SCT008 OVC020
      TEMPO 1908/1912 3SM RA BR OVC008
     FM191300 03014G25KT P6SM -RA OVC015
     FM191900 03015G26KT P6SM -RA OVC020
     FM200300 04013G22KT P6SM VCSH OVC015=

USA.gov is the U.S. government's official web portal to all federal, state and local government web resources and services.